Dades de l'estació automàtica Vilanova de Meià
Resum diari
21:30 TU| Temperatura mitjana | 14.2 °C | |
|---|---|---|
| Temperatura màxima | 21.4 °C | 11:29 TU |
| Temperatura mínima | 7.6 °C | 21:58 TU |
| Humitat relativa mitjana | 82% | |
| Precipitació acumulada | 9.3 mm | |
| Ratxa màxima del vent (10 m) | 36.0 km/h - 315º | 17:57 TU |
| Pressió atmosfèrica mitjana | 1011.8 hPa | |
El tram horari està expressat en Temps Universal (TU). Cal sumar una hora en horari d'hivern i dues en horari d'estiu per passar a l'hora oficial.
Vilanova de Meià
| Municipi | Vilanova de Meià |
|---|---|
| Comarca | Noguera |
| Altitud | 594 m |
| Data alta | 01.04.1996 |
| Estat actual | Operativa |
| Període TU |
TM °C |
TX °C |
TN °C |
HRM % |
PPT mm |
VVM (10 m) km/h |
DVM (10 m) graus |
VVX (10 m) km/h |
PM hPa |
|---|---|---|---|---|---|---|---|---|---|
| 00:00 - 00:30 | 11.4 | 11.7 | 11.1 | 97 | 0.0 | 1.4 | 4 | 3.6 | 1014.2 |
| 00:30 - 01:00 | 11.6 | 11.7 | 11.4 | 95 | 0.0 | 1.4 | 24 | 4.7 | 1014.2 |
| 01:00 - 01:30 | 11.3 | 11.6 | 11.1 | 97 | 0.0 | 1.1 | 11 | 3.2 | 1014.1 |
| 01:30 - 02:00 | 11.3 | 11.7 | 11.0 | 98 | 0.0 | 1.4 | 34 | 5.8 | 1013.9 |
| 02:00 - 02:30 | 11.6 | 11.7 | 11.5 | 94 | 0.0 | 1.1 | 11 | 3.6 | 1013.7 |
| 02:30 - 03:00 | 11.7 | 11.8 | 11.6 | 97 | 0.0 | 0.0 | 19 | 2.2 | 1013.8 |
| 03:00 - 03:30 | 11.8 | 11.8 | 11.7 | 100 | 0.0 | 0.0 | 160 | 2.9 | 1014.1 |
| 03:30 - 04:00 | 11.7 | 11.8 | 11.6 | 100 | 0.4 | 0.4 | 310 | 2.9 | 1014.0 |
| 04:00 - 04:30 | 11.5 | 11.6 | 11.4 | 100 | 0.1 | 1.1 | 11 | 3.2 | 1013.5 |
| 04:30 - 05:00 | 11.5 | 11.6 | 11.4 | 99 | 0.1 | 0.7 | 24 | 5.4 | 1013.1 |
| 05:00 - 05:30 | 11.4 | 11.5 | 11.4 | 100 | 0.0 | 2.9 | 256 | 9.4 | 1013.0 |
| 05:30 - 06:00 | 11.2 | 11.4 | 11.1 | 100 | 0.0 | 0.7 | 12 | 3.2 | 1013.3 |
| 06:00 - 06:30 | 11.0 | 11.4 | 10.9 | 100 | 0.0 | 1.4 | 9 | 2.9 | 1013.6 |
| 06:30 - 07:00 | 12.0 | 12.5 | 11.5 | 100 | 0.0 | 1.4 | 120 | 3.6 | 1013.5 |
| 07:00 - 07:30 | 12.9 | 13.1 | 12.6 | 98 | 0.0 | 0.7 | 131 | 2.9 | 1013.4 |
| 07:30 - 08:00 | 13.4 | 13.9 | 12.9 | 93 | 0.0 | 1.1 | 112 | 3.6 | 1013.3 |
| 08:00 - 08:30 | 14.1 | 15.1 | 13.6 | 86 | 0.0 | 1.4 | 70 | 4.3 | 1013.0 |
| 08:30 - 09:00 | 16.4 | 17.1 | 15.2 | 76 | 0.0 | 1.4 | 65 | 5.8 | 1012.0 |
| 09:00 - 09:30 | 16.8 | 17.2 | 16.4 | 72 | 0.0 | 2.2 | 166 | 9.0 | 1011.7 |
| 09:30 - 10:00 | 18.0 | 19.4 | 17.0 | 69 | 0.0 | 4.3 | 180 | 11.9 | 1011.3 |
| 10:00 - 10:30 | 18.9 | 19.9 | 17.9 | 64 | 0.0 | 5.4 | 172 | 11.5 | 1010.9 |
| 10:30 - 11:00 | 19.4 | 20.7 | 17.7 | 63 | 0.0 | 4.3 | 173 | 12.6 | 1010.5 |
| 11:00 - 11:30 | 20.5 | 21.4 | 19.7 | 57 | 0.0 | 4.7 | 183 | 13.0 | 1010.0 |
| 11:30 - 12:00 | 19.7 | 21.3 | 18.5 | 59 | 0.0 | 2.9 | 182 | 10.1 | 1009.7 |
| 12:00 - 12:30 | 19.2 | 19.5 | 18.9 | 61 | 0.0 | 4.0 | 196 | 18.0 | 1009.6 |
| 12:30 - 13:00 | 18.6 | 18.9 | 18.4 | 61 | 0.0 | 5.0 | 180 | 17.3 | 1009.5 |
| 13:00 - 13:30 | 18.0 | 18.6 | 16.8 | 64 | 0.0 | 7.6 | 187 | 21.6 | 1009.7 |
| 13:30 - 14:00 | 17.2 | 18.3 | 16.6 | 77 | 0.1 | 4.3 | 190 | 14.0 | 1009.7 |
| 14:00 - 14:30 | 18.3 | 18.5 | 18.0 | 64 | 0.0 | 4.7 | 188 | 11.2 | 1009.3 |
| 14:30 - 15:00 | 18.5 | 19.0 | 18.2 | 58 | 0.0 | 3.6 | 185 | 12.6 | 1009.0 |
| 15:00 - 15:30 | 18.2 | 18.5 | 18.1 | 58 | 0.0 | 5.4 | 164 | 14.8 | 1008.9 |
| 15:30 - 16:00 | 18.0 | 18.1 | 17.9 | 62 | 0.0 | 6.5 | 187 | 18.7 | 1009.1 |
| 16:00 - 16:30 | 17.9 | 18.0 | 17.8 | 64 | 0.0 | 5.8 | 173 | 15.5 | 1008.9 |
| 16:30 - 17:00 | 17.5 | 18.0 | 17.1 | 60 | 0.0 | 8.3 | 188 | 21.2 | 1009.0 |
| 17:00 - 17:30 | 16.9 | 17.1 | 16.5 | 62 | 0.0 | 6.1 | 185 | 15.1 | 1009.0 |
| 17:30 - 18:00 | 15.1 | 16.4 | 13.1 | 70 | 0.1 | 8.6 | 214 | 36.0 | 1009.7 |
| 18:00 - 18:30 | 10.9 | 12.8 | 10.1 | 81 | 5.6 | 7.6 | 340 | 29.5 | 1011.9 |
| 18:30 - 19:00 | 11.1 | 11.6 | 10.6 | 81 | 1.5 | 4.7 | 356 | 23.8 | 1012.6 |
| 19:00 - 19:30 | 10.5 | 11.0 | 10.1 | 91 | 1.3 | 3.2 | 350 | 12.2 | 1012.4 |
| 19:30 - 20:00 | 10.9 | 11.3 | 10.6 | 85 | 0.1 | 4.0 | 328 | 10.1 | 1011.5 |
| 20:00 - 20:30 | 9.9 | 10.7 | 9.5 | 93 | 0.0 | 1.8 | 358 | 5.8 | 1012.4 |
| 20:30 - 21:00 | 9.0 | 9.6 | 8.6 | 97 | 0.0 | 1.1 | 7 | 4.3 | 1013.0 |
| 21:00 - 21:30 | 8.4 | 8.6 | 8.1 | 100 | 0.0 | 1.4 | 15 | 3.6 | 1013.6 |
| 21:30 - 22:00 | 8.0 | 8.2 | 7.6 | 100 | 0.0 | 1.1 | 26 | 4.0 | 1013.7 |
| 22:00 - 22:30 | (s/d) | (s/d) | (s/d) | (s/d) | (s/d) | (s/d) | (s/d) | (s/d) | (s/d) |
Les dades en taronja només han passat un control de qualitat automàtic. Resta pendent la seva validació definitiva.